world map with AXM marked

AXM - Airport

This information may not be accurate or current and is not valid for navigation or flight planning. No warranty of fitness for any purpose is made or implied.

flag of Quindíoflag of Colombia

Donate via PayPal

Additional information is available on the NEW Great Circle Mapper

Location
City:  Armenia, Quindío, Colombia
Name:El Edén International Airport
ICAO / IATA:SKAR / AXM

Details
Type:Airport (Aerodrome, Airfield)
Latitude:4°27'12"N (4.453333)
Longitude:75°45'57"W (-75.765832)
Elevation:3990 ft (1216 m)
Runways:1
Longest:7045 × 118 ft (2147 × 36 m)

Time
Timezone:UTC+29:08 (DST+31:08)
Local Time:

Weather
METAR:SKAR  170200Z 00000KT 9999 SCT030 22/17 A3003
TAF:SKAR  (expired)

Related Locations
Nearby:
Farthest:WIPO: 12439 mi / 20019 km
Batu Raja [Gatot Subrato], LA, ID

Find:

   beyond  
but within

Other Information
Maps:
Sources:

  


 


Great Circle Mapper   Great Circle Mapper
Great Circle Mapper FAQ   Great Circle Mapper FAQ
  Karl's Home Page
KLS²   KLS² Home
   GC on Facebook
Airlines of the World   Airlines of the World
Donate via PayPal


Copyright © 2004-2018, Karl L. Swartz. All rights reserved.
All trademarks mentioned herein belong to their respective owners.

Please see credits for attribution and copyright information.

Karl Swartz <karl@kls2.com>
  Powered by FreeBSD
Valid HTML 4.01!
Labeled with ICRA
hCard Microformat
Geo Microformat